sensor_id;sensor_type;location;lat;lon;timestamp;P1;durP1;ratioP1;P2;durP2;ratioP2
11496;SDS011;5805;51.542;7.230;2024-01-15T00:00:11;19.03;;;11.93;;
11496;SDS011;5805;51.542;7.230;2024-01-15T00:02:37;21.70;;;12.60;;
11496;SDS011;5805;51.542;7.230;2024-01-15T00:05:03;19.67;;;13.47;;
11496;SDS011;5805;51.542;7.230;2024-01-15T00:07:29;21.17;;;13.47;;
11496;SDS011;5805;51.542;7.230;2024-01-15T00:09:55;18.35;;;12.73;;
11496;SDS011;5805;51.542;7.230;2024-01-15T00:12:21;19.07;;;12.87;;
11496;SDS011;5805;51.542;7.230;2024-01-15T00:14:47;23.40;;;13.50;;
11496;SDS011;5805;51.542;7.230;2024-01-15T00:17:14;18.83;;;13.13;;
11496;SDS011;5805;51.542;7.230;2024-01-15T00:19:40;23.67;;;14.43;;
11496;SDS011;5805;51.542;7.230;2024-01-15T00:22:05;25.70;;;14.60;;
11496;SDS011;5805;51.542;7.230;2024-01-15T00:24:31;22.53;;;13.07;;
11496;SDS011;5805;51.542;7.230;2024-01-15T00:26:57;21.87;;;14.77;;
11496;SDS011;5805;51.542;7.230;2024-01-15T00:29:23;22.60;;;13.90;;
11496;SDS011;5805;51.542;7.230;2024-01-15T00:31:50;24.93;;;15.40;;
11496;SDS011;5805;51.542;7.230;2024-01-15T00:34:17;22.57;;;13.07;;
11496;SDS011;5805;51.542;7.230;2024-01-15T00:36:43;21.77;;;13.60;;
11496;SDS011;5805;51.542;7.230;2024-01-15T00:39:08;21.50;;;14.43;;
11496;SDS011;5805;51.542;7.230;2024-01-15T00:41:34;24.33;;;14.10;;
11496;SDS011;5805;51.542;7.230;2024-01-15T00:44:00;22.63;;;13.67;;
11496;SDS011;5805;51.542;7.230;2024-01-15T00:46:27;24.57;;;13.90;;
11496;SDS011;5805;51.542;7.230;2024-01-15T00:48:53;24.80;;;14.33;;
11496;SDS011;5805;51.542;7.230;2024-01-15T00:51:20;20.30;;;13.80;;
11496;SDS011;5805;51.542;7.230;2024-01-15T00:53:45;20.95;;;12.70;;
11496;SDS011;5805;51.542;7.230;2024-01-15T00:56:11;20.17;;;12.87;;
11496;SDS011;5805;51.542;7.230;2024-01-15T00:58:37;20.73;;;13.23;;
11496;SDS011;5805;51.542;7.230;2024-01-15T01:01:03;23.57;;;12.80;;
11496;SDS011;5805;51.542;7.230;2024-01-15T01:03:28;21.10;;;12.83;;
11496;SDS011;5805;51.542;7.230;2024-01-15T01:05:55;18.93;;;12.50;;
11496;SDS011;5805;51.542;7.230;2024-01-15T01:08:25;21.07;;;12.83;;
11496;SDS011;5805;51.542;7.230;2024-01-15T01:10:51;17.35;;;12.30;;
11496;SDS011;5805;51.542;7.230;2024-01-15T01:13:20;17.77;;;12.43;;
11496;SDS011;5805;51.542;7.230;2024-01-15T01:15:46;21.13;;;12.37;;
11496;SDS011;5805;51.542;7.230;2024-01-15T01:18:11;18.33;;;12.20;;
11496;SDS011;5805;51.542;7.230;2024-01-15T01:20:37;22.30;;;12.35;;
11496;SDS011;5805;51.542;7.230;2024-01-15T01:23:04;19.30;;;12.25;;
11496;SDS011;5805;51.542;7.230;2024-01-15T01:25:31;19.27;;;12.23;;
11496;SDS011;5805;51.542;7.230;2024-01-15T01:28:00;20.63;;;11.93;;
11496;SDS011;5805;51.542;7.230;2024-01-15T01:30:26;17.30;;;11.80;;
11496;SDS011;5805;51.542;7.230;2024-01-15T01:32:51;18.43;;;12.07;;
11496;SDS011;5805;51.542;7.230;2024-01-15T01:35:17;19.52;;;11.07;;
11496;SDS011;5805;51.542;7.230;2024-01-15T01:37:44;16.87;;;11.23;;
11496;SDS011;5805;51.542;7.230;2024-01-15T01:40:10;16.10;;;10.97;;
11496;SDS011;5805;51.542;7.230;2024-01-15T01:42:38;16.92;;;11.23;;
11496;SDS011;5805;51.542;7.230;2024-01-15T01:45:04;17.70;;;10.97;;
11496;SDS011;5805;51.542;7.230;2024-01-15T01:47:30;14.60;;;9.63;;
11496;SDS011;5805;51.542;7.230;2024-01-15T01:49:57;17.38;;;10.90;;
11496;SDS011;5805;51.542;7.230;2024-01-15T01:52:23;16.33;;;10.70;;
11496;SDS011;5805;51.542;7.230;2024-01-15T01:54:49;16.88;;;10.48;;
11496;SDS011;5805;51.542;7.230;2024-01-15T01:57:16;15.50;;;9.90;;
11496;SDS011;5805;51.542;7.230;2024-01-15T01:59:46;16.13;;;10.37;;
11496;SDS011;5805;51.542;7.230;2024-01-15T02:02:12;15.77;;;9.48;;
11496;SDS011;5805;51.542;7.230;2024-01-15T02:04:38;13.97;;;9.70;;
11496;SDS011;5805;51.542;7.230;2024-01-15T02:07:06;17.05;;;10.23;;
11496;SDS011;5805;51.542;7.230;2024-01-15T02:09:32;13.27;;;9.40;;
11496;SDS011;5805;51.542;7.230;2024-01-15T02:11:58;15.97;;;9.73;;
11496;SDS011;5805;51.542;7.230;2024-01-15T02:14:23;13.83;;;9.00;;
11496;SDS011;5805;51.542;7.230;2024-01-15T02:16:51;14.27;;;9.50;;
11496;SDS011;5805;51.542;7.230;2024-01-15T02:19:17;13.70;;;9.83;;
11496;SDS011;5805;51.542;7.230;2024-01-15T02:21:44;13.07;;;9.20;;
11496;SDS011;5805;51.542;7.230;2024-01-15T02:24:11;15.20;;;9.57;;
11496;SDS011;5805;51.542;7.230;2024-01-15T02:26:37;13.77;;;8.37;;
11496;SDS011;5805;51.542;7.230;2024-01-15T02:29:03;12.90;;;9.13;;
11496;SDS011;5805;51.542;7.230;2024-01-15T02:31:32;16.23;;;9.10;;
11496;SDS011;5805;51.542;7.230;2024-01-15T02:33:58;12.83;;;8.83;;
11496;SDS011;5805;51.542;7.230;2024-01-15T02:36:23;13.73;;;9.17;;
11496;SDS011;5805;51.542;7.230;2024-01-15T02:38:49;15.90;;;10.30;;
11496;SDS011;5805;51.542;7.230;2024-01-15T02:41:16;13.63;;;9.77;;
11496;SDS011;5805;51.542;7.230;2024-01-15T02:43:42;13.63;;;9.20;;
11496;SDS011;5805;51.542;7.230;2024-01-15T02:46:09;14.87;;;9.40;;
11496;SDS011;5805;51.542;7.230;2024-01-15T02:48:35;15.07;;;9.17;;
11496;SDS011;5805;51.542;7.230;2024-01-15T02:51:01;15.30;;;9.53;;
11496;SDS011;5805;51.542;7.230;2024-01-15T02:53:27;11.63;;;9.50;;
11496;SDS011;5805;51.542;7.230;2024-01-15T02:55:52;12.53;;;8.80;;
11496;SDS011;5805;51.542;7.230;2024-01-15T02:58:21;13.57;;;9.63;;
11496;SDS011;5805;51.542;7.230;2024-01-15T03:00:47;16.17;;;9.57;;
11496;SDS011;5805;51.542;7.230;2024-01-15T03:03:12;14.37;;;9.53;;
11496;SDS011;5805;51.542;7.230;2024-01-15T03:05:39;13.47;;;8.57;;
11496;SDS011;5805;51.542;7.230;2024-01-15T03:08:05;14.40;;;8.93;;
11496;SDS011;5805;51.542;7.230;2024-01-15T03:10:31;16.48;;;9.13;;
11496;SDS011;5805;51.542;7.230;2024-01-15T03:12:58;12.93;;;8.52;;
11496;SDS011;5805;51.542;7.230;2024-01-15T03:15:25;14.10;;;9.40;;
11496;SDS011;5805;51.542;7.230;2024-01-15T03:17:51;14.63;;;9.10;;
11496;SDS011;5805;51.542;7.230;2024-01-15T03:20:16;13.23;;;8.03;;
11496;SDS011;5805;51.542;7.230;2024-01-15T03:22:42;13.10;;;8.07;;
11496;SDS011;5805;51.542;7.230;2024-01-15T03:25:08;13.63;;;7.93;;
11496;SDS011;5805;51.542;7.230;2024-01-15T03:27:34;16.83;;;8.60;;
11496;SDS011;5805;51.542;7.230;2024-01-15T03:30:00;16.10;;;8.10;;
11496;SDS011;5805;51.542;7.230;2024-01-15T03:32:27;14.33;;;7.73;;
11496;SDS011;5805;51.542;7.230;2024-01-15T03:34:54;15.03;;;8.60;;
11496;SDS011;5805;51.542;7.230;2024-01-15T03:37:20;12.00;;;7.27;;
11496;SDS011;5805;51.542;7.230;2024-01-15T03:39:46;10.40;;;7.43;;
11496;SDS011;5805;51.542;7.230;2024-01-15T03:42:12;12.53;;;8.13;;
11496;SDS011;5805;51.542;7.230;2024-01-15T03:44:38;10.80;;;6.80;;
11496;SDS011;5805;51.542;7.230;2024-01-15T03:47:04;13.13;;;7.00;;
11496;SDS011;5805;51.542;7.230;2024-01-15T03:49:32;10.53;;;7.10;;
11496;SDS011;5805;51.542;7.230;2024-01-15T03:51:58;13.43;;;7.07;;
11496;SDS011;5805;51.542;7.230;2024-01-15T03:54:23;10.00;;;6.73;;
11496;SDS011;5805;51.542;7.230;2024-01-15T03:56:50;12.27;;;6.33;;
11496;SDS011;5805;51.542;7.230;2024-01-15T03:59:16;10.77;;;6.60;;
11496;SDS011;5805;51.542;7.230;2024-01-15T04:01:47;9.83;;;6.63;;
11496;SDS011;5805;51.542;7.230;2024-01-15T04:04:13;11.47;;;6.53;;
11496;SDS011;5805;51.542;7.230;2024-01-15T04:06:41;11.30;;;6.87;;
11496;SDS011;5805;51.542;7.230;2024-01-15T04:09:06;12.05;;;5.72;;
11496;SDS011;5805;51.542;7.230;2024-01-15T04:11:32;9.93;;;6.03;;
11496;SDS011;5805;51.542;7.230;2024-01-15T04:13:58;11.88;;;5.95;;
11496;SDS011;5805;51.542;7.230;2024-01-15T04:16:24;10.48;;;6.22;;
11496;SDS011;5805;51.542;7.230;2024-01-15T04:18:49;9.17;;;5.70;;
11496;SDS011;5805;51.542;7.230;2024-01-15T04:21:16;9.90;;;5.57;;
11496;SDS011;5805;51.542;7.230;2024-01-15T04:23:44;11.17;;;5.43;;
11496;SDS011;5805;51.542;7.230;2024-01-15T04:26:09;7.22;;;5.47;;
11496;SDS011;5805;51.542;7.230;2024-01-15T04:28:35;11.90;;;5.40;;
11496;SDS011;5805;51.542;7.230;2024-01-15T04:31:01;8.68;;;5.03;;
11496;SDS011;5805;51.542;7.230;2024-01-15T04:33:26;8.80;;;5.50;;
11496;SDS011;5805;51.542;7.230;2024-01-15T04:35:52;9.57;;;5.28;;
11496;SDS011;5805;51.542;7.230;2024-01-15T04:38:18;6.90;;;4.85;;
11496;SDS011;5805;51.542;7.230;2024-01-15T04:40:45;9.63;;;5.57;;
11496;SDS011;5805;51.542;7.230;2024-01-15T04:43:11;8.37;;;5.37;;
11496;SDS011;5805;51.542;7.230;2024-01-15T04:45:37;7.80;;;5.73;;
11496;SDS011;5805;51.542;7.230;2024-01-15T04:48:03;8.13;;;5.70;;
11496;SDS011;5805;51.542;7.230;2024-01-15T04:50:29;9.57;;;5.23;;
11496;SDS011;5805;51.542;7.230;2024-01-15T04:52:55;9.67;;;6.20;;
11496;SDS011;5805;51.542;7.230;2024-01-15T04:55:22;10.02;;;5.65;;
11496;SDS011;5805;51.542;7.230;2024-01-15T04:57:49;10.03;;;5.83;;
11496;SDS011;5805;51.542;7.230;2024-01-15T05:00:15;10.30;;;5.95;;
11496;SDS011;5805;51.542;7.230;2024-01-15T05:02:41;10.53;;;5.60;;
11496;SDS011;5805;51.542;7.230;2024-01-15T05:05:07;7.77;;;5.73;;
11496;SDS011;5805;51.542;7.230;2024-01-15T05:07:32;9.77;;;6.45;;
11496;SDS011;5805;51.542;7.230;2024-01-15T05:09:58;10.00;;;6.00;;
11496;SDS011;5805;51.542;7.230;2024-01-15T05:12:25;11.47;;;7.07;;
11496;SDS011;5805;51.542;7.230;2024-01-15T05:14:53;7.95;;;6.53;;
11496;SDS011;5805;51.542;7.230;2024-01-15T05:17:19;11.18;;;6.90;;
11496;SDS011;5805;51.542;7.230;2024-01-15T05:19:45;11.60;;;6.27;;
11496;SDS011;5805;51.542;7.230;2024-01-15T05:22:10;9.47;;;6.90;;
11496;SDS011;5805;51.542;7.230;2024-01-15T05:24:36;11.20;;;6.50;;
11496;SDS011;5805;51.542;7.230;2024-01-15T05:27:02;9.45;;;6.00;;
11496;SDS011;5805;51.542;7.230;2024-01-15T05:29:28;12.17;;;7.13;;
11496;SDS011;5805;51.542;7.230;2024-01-15T05:31:56;9.10;;;6.15;;
11496;SDS011;5805;51.542;7.230;2024-01-15T05:34:22;10.23;;;6.60;;
11496;SDS011;5805;51.542;7.230;2024-01-15T05:36:48;11.10;;;6.47;;
11496;SDS011;5805;51.542;7.230;2024-01-15T05:39:14;11.23;;;6.37;;
11496;SDS011;5805;51.542;7.230;2024-01-15T05:41:40;8.77;;;6.37;;
11496;SDS011;5805;51.542;7.230;2024-01-15T05:44:07;9.10;;;6.27;;
11496;SDS011;5805;51.542;7.230;2024-01-15T05:46:34;7.15;;;5.68;;
11496;SDS011;5805;51.542;7.230;2024-01-15T05:49:01;9.73;;;6.47;;
11496;SDS011;5805;51.542;7.230;2024-01-15T05:51:27;8.15;;;5.65;;
11496;SDS011;5805;51.542;7.230;2024-01-15T05:53:53;9.57;;;6.00;;
11496;SDS011;5805;51.542;7.230;2024-01-15T05:56:18;6.90;;;5.68;;
11496;SDS011;5805;51.542;7.230;2024-01-15T05:58:45;9.93;;;5.87;;
11496;SDS011;5805;51.542;7.230;2024-01-15T06:01:11;6.47;;;5.28;;
11496;SDS011;5805;51.542;7.230;2024-01-15T06:03:36;7.72;;;5.40;;
11496;SDS011;5805;51.542;7.230;2024-01-15T06:06:08;7.95;;;5.82;;
11496;SDS011;5805;51.542;7.230;2024-01-15T06:08:34;8.35;;;5.00;;
11496;SDS011;5805;51.542;7.230;2024-01-15T06:11:00;8.82;;;5.47;;
11496;SDS011;5805;51.542;7.230;2024-01-15T06:13:25;9.48;;;5.72;;
11496;SDS011;5805;51.542;7.230;2024-01-15T06:15:51;6.90;;;5.20;;
11496;SDS011;5805;51.542;7.230;2024-01-15T06:18:17;9.48;;;4.80;;
11496;SDS011;5805;51.542;7.230;2024-01-15T06:20:42;8.07;;;5.95;;
11496;SDS011;5805;51.542;7.230;2024-01-15T06:23:10;8.95;;;5.72;;
11496;SDS011;5805;51.542;7.230;2024-01-15T06:25:35;9.57;;;6.03;;
11496;SDS011;5805;51.542;7.230;2024-01-15T06:28:02;11.98;;;5.50;;
11496;SDS011;5805;51.542;7.230;2024-01-15T06:30:28;7.13;;;5.50;;
11496;SDS011;5805;51.542;7.230;2024-01-15T06:32:54;9.18;;;5.38;;
11496;SDS011;5805;51.542;7.230;2024-01-15T06:35:20;7.95;;;5.25;;
11496;SDS011;5805;51.542;7.230;2024-01-15T06:37:46;11.23;;;5.57;;
11496;SDS011;5805;51.542;7.230;2024-01-15T06:40:15;7.68;;;5.15;;
11496;SDS011;5805;51.542;7.230;2024-01-15T06:42:41;7.22;;;5.45;;
11496;SDS011;5805;51.542;7.230;2024-01-15T06:45:07;7.28;;;5.45;;
11496;SDS011;5805;51.542;7.230;2024-01-15T06:47:33;12.93;;;6.40;;
11496;SDS011;5805;51.542;7.230;2024-01-15T06:49:59;8.07;;;5.90;;
11496;SDS011;5805;51.542;7.230;2024-01-15T06:52:24;6.53;;;5.50;;
11496;SDS011;5805;51.542;7.230;2024-01-15T06:54:50;8.10;;;5.32;;
11496;SDS011;5805;51.542;7.230;2024-01-15T06:57:20;9.02;;;6.20;;
11496;SDS011;5805;51.542;7.230;2024-01-15T06:59:46;11.45;;;6.25;;
11496;SDS011;5805;51.542;7.230;2024-01-15T07:02:12;7.65;;;5.22;;
11496;SDS011;5805;51.542;7.230;2024-01-15T07:04:38;11.23;;;6.10;;
11496;SDS011;5805;51.542;7.230;2024-01-15T07:07:03;6.50;;;5.23;;
11496;SDS011;5805;51.542;7.230;2024-01-15T07:09:29;7.35;;;6.03;;
11496;SDS011;5805;51.542;7.230;2024-01-15T07:11:55;10.30;;;6.43;;
11496;SDS011;5805;51.542;7.230;2024-01-15T07:14:22;9.10;;;6.72;;
11496;SDS011;5805;51.542;7.230;2024-01-15T07:16:48;8.73;;;6.93;;
11496;SDS011;5805;51.542;7.230;2024-01-15T07:19:13;8.15;;;6.38;;
11496;SDS011;5805;51.542;7.230;2024-01-15T07:21:39;14.13;;;6.80;;
11496;SDS011;5805;51.542;7.230;2024-01-15T07:24:05;10.80;;;6.53;;
11496;SDS011;5805;51.542;7.230;2024-01-15T07:26:30;10.88;;;6.93;;
11496;SDS011;5805;51.542;7.230;2024-01-15T07:28:56;8.15;;;6.63;;
11496;SDS011;5805;51.542;7.230;2024-01-15T07:31:23;9.13;;;6.53;;
11496;SDS011;5805;51.542;7.230;2024-01-15T07:33:49;8.80;;;6.82;;
11496;SDS011;5805;51.542;7.230;2024-01-15T07:36:15;6.82;;;5.70;;
11496;SDS011;5805;51.542;7.230;2024-01-15T07:38:40;6.88;;;6.18;;
11496;SDS011;5805;51.542;7.230;2024-01-15T07:41:06;7.40;;;5.85;;
11496;SDS011;5805;51.542;7.230;2024-01-15T07:43:32;7.38;;;5.35;;
11496;SDS011;5805;51.542;7.230;2024-01-15T07:45:57;6.75;;;5.90;;
11496;SDS011;5805;51.542;7.230;2024-01-15T07:48:25;8.30;;;5.38;;
11496;SDS011;5805;51.542;7.230;2024-01-15T07:50:51;7.30;;;5.68;;
11496;SDS011;5805;51.542;7.230;2024-01-15T07:53:16;7.32;;;5.60;;
11496;SDS011;5805;51.542;7.230;2024-01-15T07:55:42;9.23;;;5.03;;
11496;SDS011;5805;51.542;7.230;2024-01-15T07:58:08;6.95;;;5.10;;
11496;SDS011;5805;51.542;7.230;2024-01-15T08:00:33;8.50;;;5.18;;
11496;SDS011;5805;51.542;7.230;2024-01-15T08:02:59;5.85;;;4.80;;
11496;SDS011;5805;51.542;7.230;2024-01-15T08:05:26;6.88;;;4.70;;
11496;SDS011;5805;51.542;7.230;2024-01-15T08:07:52;5.22;;;4.35;;
11496;SDS011;5805;51.542;7.230;2024-01-15T08:10:18;7.25;;;4.63;;
11496;SDS011;5805;51.542;7.230;2024-01-15T08:12:43;6.78;;;5.25;;
11496;SDS011;5805;51.542;7.230;2024-01-15T08:15:09;6.25;;;4.45;;
11496;SDS011;5805;51.542;7.230;2024-01-15T08:17:35;6.20;;;4.80;;
11496;SDS011;5805;51.542;7.230;2024-01-15T08:20:00;5.43;;;4.68;;
11496;SDS011;5805;51.542;7.230;2024-01-15T08:22:28;4.60;;;4.15;;
11496;SDS011;5805;51.542;7.230;2024-01-15T08:24:53;4.72;;;4.05;;
11496;SDS011;5805;51.542;7.230;2024-01-15T08:27:19;8.48;;;5.00;;
11496;SDS011;5805;51.542;7.230;2024-01-15T08:29:44;5.85;;;4.55;;
11496;SDS011;5805;51.542;7.230;2024-01-15T08:32:10;5.50;;;4.63;;
11496;SDS011;5805;51.542;7.230;2024-01-15T08:34:36;5.28;;;4.25;;
11496;SDS011;5805;51.542;7.230;2024-01-15T08:37:01;5.82;;;4.00;;
11496;SDS011;5805;51.542;7.230;2024-01-15T08:39:29;4.88;;;4.38;;
11496;SDS011;5805;51.542;7.230;2024-01-15T08:41:55;5.90;;;4.22;;
11496;SDS011;5805;51.542;7.230;2024-01-15T08:44:20;4.70;;;3.83;;
11496;SDS011;5805;51.542;7.230;2024-01-15T08:46:46;4.78;;;4.18;;
11496;SDS011;5805;51.542;7.230;2024-01-15T08:49:12;4.53;;;4.05;;
11496;SDS011;5805;51.542;7.230;2024-01-15T08:51:37;5.43;;;4.07;;
11496;SDS011;5805;51.542;7.230;2024-01-15T08:54:03;5.50;;;4.47;;
11496;SDS011;5805;51.542;7.230;2024-01-15T08:56:30;6.88;;;4.60;;
11496;SDS011;5805;51.542;7.230;2024-01-15T08:58:56;9.20;;;5.10;;
11496;SDS011;5805;51.542;7.230;2024-01-15T09:01:22;7.10;;;6.13;;
11496;SDS011;5805;51.542;7.230;2024-01-15T09:03:48;6.35;;;5.65;;
11496;SDS011;5805;51.542;7.230;2024-01-15T09:06:13;7.00;;;5.65;;
11496;SDS011;5805;51.542;7.230;2024-01-15T09:08:39;7.70;;;6.18;;
11496;SDS011;5805;51.542;7.230;2024-01-15T09:11:05;10.63;;;9.63;;
11496;SDS011;5805;51.542;7.230;2024-01-15T09:13:32;8.38;;;7.28;;
11496;SDS011;5805;51.542;7.230;2024-01-15T09:15:58;8.35;;;7.45;;
11496;SDS011;5805;51.542;7.230;2024-01-15T09:18:23;9.45;;;6.90;;
11496;SDS011;5805;51.542;7.230;2024-01-15T09:20:49;8.15;;;6.47;;
11496;SDS011;5805;51.542;7.230;2024-01-15T09:23:15;7.70;;;6.60;;
11496;SDS011;5805;51.542;7.230;2024-01-15T09:25:41;8.13;;;6.70;;
11496;SDS011;5805;51.542;7.230;2024-01-15T09:28:06;7.32;;;6.40;;
11496;SDS011;5805;51.542;7.230;2024-01-15T09:30:33;7.72;;;6.65;;
11496;SDS011;5805;51.542;7.230;2024-01-15T09:32:59;8.15;;;6.32;;
11496;SDS011;5805;51.542;7.230;2024-01-15T09:35:25;5.80;;;5.25;;
11496;SDS011;5805;51.542;7.230;2024-01-15T09:37:51;7.22;;;5.45;;
11496;SDS011;5805;51.542;7.230;2024-01-15T09:40:16;6.57;;;5.38;;
11496;SDS011;5805;51.542;7.230;2024-01-15T09:42:45;6.68;;;5.15;;
11496;SDS011;5805;51.542;7.230;2024-01-15T09:45:12;6.43;;;4.25;;
11496;SDS011;5805;51.542;7.230;2024-01-15T09:47:39;6.15;;;4.10;;
11496;SDS011;5805;51.542;7.230;2024-01-15T09:50:06;4.57;;;3.80;;
11496;SDS011;5805;51.542;7.230;2024-01-15T09:52:32;4.53;;;3.78;;
11496;SDS011;5805;51.542;7.230;2024-01-15T09:55:00;4.40;;;3.95;;
11496;SDS011;5805;51.542;7.230;2024-01-15T09:57:28;3.60;;;3.20;;
11496;SDS011;5805;51.542;7.230;2024-01-15T09:59:54;4.38;;;3.30;;
11496;SDS011;5805;51.542;7.230;2024-01-15T10:02:22;4.07;;;3.33;;
11496;SDS011;5805;51.542;7.230;2024-01-15T10:04:49;3.93;;;3.53;;
11496;SDS011;5805;51.542;7.230;2024-01-15T10:07:15;5.38;;;4.50;;
11496;SDS011;5805;51.542;7.230;2024-01-15T10:09:41;6.75;;;4.95;;
11496;SDS011;5805;51.542;7.230;2024-01-15T10:12:07;6.70;;;4.95;;
11496;SDS011;5805;51.542;7.230;2024-01-15T10:14:34;7.35;;;5.25;;
11496;SDS011;5805;51.542;7.230;2024-01-15T10:17:00;6.30;;;4.85;;
11496;SDS011;5805;51.542;7.230;2024-01-15T10:19:25;6.00;;;4.40;;
11496;SDS011;5805;51.542;7.230;2024-01-15T10:21:52;7.00;;;4.70;;
11496;SDS011;5805;51.542;7.230;2024-01-15T10:24:18;7.55;;;4.97;;
11496;SDS011;5805;51.542;7.230;2024-01-15T10:26:44;5.90;;;4.22;;
11496;SDS011;5805;51.542;7.230;2024-01-15T10:29:09;5.95;;;4.95;;
11496;SDS011;5805;51.542;7.230;2024-01-15T10:31:35;7.30;;;5.50;;
11496;SDS011;5805;51.542;7.230;2024-01-15T10:34:09;7.97;;;5.32;;
11496;SDS011;5805;51.542;7.230;2024-01-15T10:36:35;6.65;;;5.47;;
11496;SDS011;5805;51.542;7.230;2024-01-15T10:39:05;7.45;;;5.60;;
11496;SDS011;5805;51.542;7.230;2024-01-15T10:41:31;6.72;;;5.63;;
11496;SDS011;5805;51.542;7.230;2024-01-15T10:43:57;8.55;;;6.35;;
11496;SDS011;5805;51.542;7.230;2024-01-15T10:46:23;7.28;;;5.93;;
11496;SDS011;5805;51.542;7.230;2024-01-15T10:48:50;9.70;;;5.70;;
11496;SDS011;5805;51.542;7.230;2024-01-15T10:51:16;7.43;;;5.93;;
11496;SDS011;5805;51.542;7.230;2024-01-15T10:53:43;8.48;;;6.45;;
11496;SDS011;5805;51.542;7.230;2024-01-15T10:56:11;8.07;;;6.15;;
11496;SDS011;5805;51.542;7.230;2024-01-15T10:58:39;6.93;;;5.93;;
11496;SDS011;5805;51.542;7.230;2024-01-15T11:01:06;11.38;;;6.30;;
11496;SDS011;5805;51.542;7.230;2024-01-15T11:03:33;8.75;;;5.80;;
11496;SDS011;5805;51.542;7.230;2024-01-15T11:05:59;7.03;;;5.88;;
11496;SDS011;5805;51.542;7.230;2024-01-15T11:08:25;7.32;;;5.68;;
11496;SDS011;5805;51.542;7.230;2024-01-15T11:10:51;9.38;;;5.50;;
11496;SDS011;5805;51.542;7.230;2024-01-15T11:13:20;6.82;;;5.15;;
11496;SDS011;5805;51.542;7.230;2024-01-15T11:16:00;6.50;;;5.47;;
11496;SDS011;5805;51.542;7.230;2024-01-15T11:18:27;10.93;;;5.85;;
11496;SDS011;5805;51.542;7.230;2024-01-15T11:23:48;6.85;;;5.32;;
11496;SDS011;5805;51.542;7.230;2024-01-15T11:26:27;6.15;;;4.60;;
11496;SDS011;5805;51.542;7.230;2024-01-15T11:28:59;6.47;;;4.50;;
11496;SDS011;5805;51.542;7.230;2024-01-15T11:31:27;8.10;;;4.88;;
11496;SDS011;5805;51.542;7.230;2024-01-15T11:33:53;5.75;;;3.97;;
11496;SDS011;5805;51.542;7.230;2024-01-15T11:36:18;5.65;;;4.05;;
11496;SDS011;5805;51.542;7.230;2024-01-15T11:38:44;6.75;;;4.10;;
11496;SDS011;5805;51.542;7.230;2024-01-15T11:41:13;4.18;;;3.22;;
11496;SDS011;5805;51.542;7.230;2024-01-15T11:43:39;3.85;;;2.47;;
11496;SDS011;5805;51.542;7.230;2024-01-15T11:46:06;3.47;;;2.45;;
11496;SDS011;5805;51.542;7.230;2024-01-15T11:48:41;7.75;;;2.88;;
11496;SDS011;5805;51.542;7.230;2024-01-15T11:51:08;3.75;;;2.40;;
11496;SDS011;5805;51.542;7.230;2024-01-15T11:53:36;2.88;;;2.40;;
11496;SDS011;5805;51.542;7.230;2024-01-15T11:56:11;4.15;;;3.30;;
11496;SDS011;5805;51.542;7.230;2024-01-15T11:58:39;6.13;;;3.00;;
11496;SDS011;5805;51.542;7.230;2024-01-15T12:01:06;3.90;;;3.35;;
11496;SDS011;5805;51.542;7.230;2024-01-15T12:03:32;4.05;;;3.65;;
11496;SDS011;5805;51.542;7.230;2024-01-15T12:05:58;4.65;;;3.70;;
11496;SDS011;5805;51.542;7.230;2024-01-15T12:08:24;7.32;;;3.80;;
11496;SDS011;5805;51.542;7.230;2024-01-15T12:10:49;4.90;;;3.65;;
11496;SDS011;5805;51.542;7.230;2024-01-15T12:13:15;7.07;;;3.33;;
11496;SDS011;5805;51.542;7.230;2024-01-15T12:15:42;4.05;;;3.17;;
11496;SDS011;5805;51.542;7.230;2024-01-15T12:18:11;4.20;;;3.65;;
11496;SDS011;5805;51.542;7.230;2024-01-15T12:20:37;6.00;;;3.88;;
11496;SDS011;5805;51.542;7.230;2024-01-15T12:23:04;4.38;;;3.60;;
11496;SDS011;5805;51.542;7.230;2024-01-15T12:25:30;4.90;;;4.20;;
11496;SDS011;5805;51.542;7.230;2024-01-15T12:27:57;4.63;;;3.90;;
11496;SDS011;5805;51.542;7.230;2024-01-15T12:30:25;7.25;;;4.70;;
11496;SDS011;5805;51.542;7.230;2024-01-15T12:32:51;5.10;;;4.03;;
11496;SDS011;5805;51.542;7.230;2024-01-15T12:35:18;8.75;;;3.83;;
11496;SDS011;5805;51.542;7.230;2024-01-15T12:37:44;7.30;;;4.15;;
11496;SDS011;5805;51.542;7.230;2024-01-15T12:40:10;6.88;;;3.47;;
11496;SDS011;5805;51.542;7.230;2024-01-15T12:42:36;4.68;;;3.25;;
11496;SDS011;5805;51.542;7.230;2024-01-15T12:45:02;4.78;;;4.03;;
11496;SDS011;5805;51.542;7.230;2024-01-15T12:47:28;4.82;;;3.38;;
11496;SDS011;5805;51.542;7.230;2024-01-15T12:49:54;7.88;;;3.03;;
11496;SDS011;5805;51.542;7.230;2024-01-15T12:52:21;7.47;;;3.33;;
11496;SDS011;5805;51.542;7.230;2024-01-15T12:54:47;3.70;;;2.65;;
11496;SDS011;5805;51.542;7.230;2024-01-15T12:57:13;5.80;;;2.85;;
11496;SDS011;5805;51.542;7.230;2024-01-15T12:59:39;7.13;;;2.83;;
11496;SDS011;5805;51.542;7.230;2024-01-15T13:02:05;3.72;;;2.15;;
11496;SDS011;5805;51.542;7.230;2024-01-15T13:04:31;3.25;;;2.40;;
11496;SDS011;5805;51.542;7.230;2024-01-15T13:06:56;3.30;;;2.20;;
11496;SDS011;5805;51.542;7.230;2024-01-15T13:09:24;2.30;;;2.10;;
11496;SDS011;5805;51.542;7.230;2024-01-15T13:11:49;4.50;;;1.55;;
11496;SDS011;5805;51.542;7.230;2024-01-15T13:14:15;4.05;;;1.60;;
11496;SDS011;5805;51.542;7.230;2024-01-15T13:16:41;6.47;;;1.67;;
11496;SDS011;5805;51.542;7.230;2024-01-15T13:19:07;2.03;;;1.40;;
11496;SDS011;5805;51.542;7.230;2024-01-15T13:21:33;4.10;;;1.48;;
11496;SDS011;5805;51.542;7.230;2024-01-15T13:23:58;2.08;;;1.40;;
11496;SDS011;5805;51.542;7.230;2024-01-15T13:26:26;2.47;;;1.70;;
11496;SDS011;5805;51.542;7.230;2024-01-15T13:28:51;4.35;;;1.45;;
11496;SDS011;5805;51.542;7.230;2024-01-15T13:31:18;3.63;;;1.55;;
11496;SDS011;5805;51.542;7.230;2024-01-15T13:33:43;2.35;;;1.17;;
11496;SDS011;5805;51.542;7.230;2024-01-15T13:36:09;4.07;;;1.25;;
11496;SDS011;5805;51.542;7.230;2024-01-15T13:38:35;2.15;;;1.17;;
11496;SDS011;5805;51.542;7.230;2024-01-15T13:41:01;3.17;;;1.10;;
11496;SDS011;5805;51.542;7.230;2024-01-15T13:43:28;1.73;;;1.33;;
11496;SDS011;5805;51.542;7.230;2024-01-15T13:45:53;2.13;;;1.10;;
11496;SDS011;5805;51.542;7.230;2024-01-15T13:48:19;2.75;;;1.67;;
11496;SDS011;5805;51.542;7.230;2024-01-15T13:50:45;4.25;;;1.42;;
11496;SDS011;5805;51.542;7.230;2024-01-15T13:53:10;1.33;;;1.00;;
11496;SDS011;5805;51.542;7.230;2024-01-15T13:55:36;2.30;;;1.13;;
11496;SDS011;5805;51.542;7.230;2024-01-15T13:58:02;2.35;;;1.15;;
11496;SDS011;5805;51.542;7.230;2024-01-15T14:00:29;3.72;;;1.05;;
11496;SDS011;5805;51.542;7.230;2024-01-15T14:02:55;2.65;;;0.80;;
11496;SDS011;5805;51.542;7.230;2024-01-15T14:05:20;1.98;;;0.85;;
11496;SDS011;5805;51.542;7.230;2024-01-15T14:07:46;3.72;;;1.20;;
11496;SDS011;5805;51.542;7.230;2024-01-15T14:10:12;1.73;;;0.98;;
11496;SDS011;5805;51.542;7.230;2024-01-15T14:12:37;1.30;;;0.93;;
11496;SDS011;5805;51.542;7.230;2024-01-15T14:15:03;2.03;;;1.05;;
11496;SDS011;5805;51.542;7.230;2024-01-15T14:17:31;2.97;;;1.20;;
11496;SDS011;5805;51.542;7.230;2024-01-15T14:19:57;1.73;;;0.95;;
11496;SDS011;5805;51.542;7.230;2024-01-15T14:22:23;3.55;;;1.15;;
11496;SDS011;5805;51.542;7.230;2024-01-15T14:24:48;1.50;;;1.15;;
11496;SDS011;5805;51.542;7.230;2024-01-15T14:27:14;2.08;;;1.27;;
11496;SDS011;5805;51.542;7.230;2024-01-15T14:29:40;1.42;;;0.88;;
11496;SDS011;5805;51.542;7.230;2024-01-15T14:32:06;2.63;;;1.10;;
11496;SDS011;5805;51.542;7.230;2024-01-15T14:34:33;1.63;;;1.13;;
11496;SDS011;5805;51.542;7.230;2024-01-15T14:36:59;1.90;;;1.20;;
11496;SDS011;5805;51.542;7.230;2024-01-15T14:39:24;2.33;;;1.08;;
11496;SDS011;5805;51.542;7.230;2024-01-15T14:41:50;2.95;;;1.20;;
11496;SDS011;5805;51.542;7.230;2024-01-15T14:44:16;1.58;;;1.25;;
11496;SDS011;5805;51.542;7.230;2024-01-15T14:46:41;1.42;;;1.33;;
11496;SDS011;5805;51.542;7.230;2024-01-15T14:49:07;3.35;;;1.80;;
11496;SDS011;5805;51.542;7.230;2024-01-15T14:51:34;3.75;;;1.58;;